sensor_id;sensor_type;location;lat;lon;timestamp;temperature;humidity
3275;DHT22;1649;53.672;10.064;2022-07-29T00:00:46;13.10;99.90
3275;DHT22;1649;53.672;10.064;2022-07-29T00:03:12;13.00;99.90
3275;DHT22;1649;53.672;10.064;2022-07-29T00:05:39;13.00;99.90
3275;DHT22;1649;53.672;10.064;2022-07-29T00:08:05;13.00;99.90
3275;DHT22;1649;53.672;10.064;2022-07-29T00:10:30;13.00;99.90
3275;DHT22;1649;53.672;10.064;2022-07-29T00:12:56;13.00;99.90
3275;DHT22;1649;53.672;10.064;2022-07-29T00:15:21;13.00;99.90
3275;DHT22;1649;53.672;10.064;2022-07-29T00:17:46;12.90;99.90
3275;DHT22;1649;53.672;10.064;2022-07-29T00:20:12;12.90;99.90
3275;DHT22;1649;53.672;10.064;2022-07-29T00:22:39;12.90;99.90
3275;DHT22;1649;53.672;10.064;2022-07-29T00:25:05;12.80;99.90
3275;DHT22;1649;53.672;10.064;2022-07-29T00:27:31;12.80;99.90
3275;DHT22;1649;53.672;10.064;2022-07-29T00:29:56;12.70;99.90
3275;DHT22;1649;53.672;10.064;2022-07-29T00:32:22;12.70;99.90
3275;DHT22;1649;53.672;10.064;2022-07-29T00:34:47;12.60;99.90
3275;DHT22;1649;53.672;10.064;2022-07-29T00:37:48;12.50;99.90
3275;DHT22;1649;53.672;10.064;2022-07-29T00:40:13;12.60;99.90
3275;DHT22;1649;53.672;10.064;2022-07-29T00:42:46;12.60;99.90
3275;DHT22;1649;53.672;10.064;2022-07-29T00:45:12;12.60;99.90
3275;DHT22;1649;53.672;10.064;2022-07-29T00:47:38;12.40;99.90
3275;DHT22;1649;53.672;10.064;2022-07-29T00:50:05;12.40;99.90
3275;DHT22;1649;53.672;10.064;2022-07-29T00:52:32;12.50;99.90
3275;DHT22;1649;53.672;10.064;2022-07-29T00:54:58;12.50;99.90
3275;DHT22;1649;53.672;10.064;2022-07-29T00:57:24;12.50;99.90
3275;DHT22;1649;53.672;10.064;2022-07-29T00:59:49;12.50;99.90
3275;DHT22;1649;53.672;10.064;2022-07-29T01:02:15;12.50;99.90
3275;DHT22;1649;53.672;10.064;2022-07-29T01:04:41;12.50;99.90
3275;DHT22;1649;53.672;10.064;2022-07-29T01:07:07;12.40;99.90
3275;DHT22;1649;53.672;10.064;2022-07-29T01:09:33;12.50;99.90
3275;DHT22;1649;53.672;10.064;2022-07-29T01:11:59;12.40;99.90
3275;DHT22;1649;53.672;10.064;2022-07-29T01:14:25;12.40;99.90
3275;DHT22;1649;53.672;10.064;2022-07-29T01:16:56;12.40;99.90
3275;DHT22;1649;53.672;10.064;2022-07-29T01:23:13;12.40;99.90
3275;DHT22;1649;53.672;10.064;2022-07-29T01:28:31;12.40;99.90
3275;DHT22;1649;53.672;10.064;2022-07-29T01:30:58;12.40;99.90
3275;DHT22;1649;53.672;10.064;2022-07-29T01:33:26;12.40;99.90
3275;DHT22;1649;53.672;10.064;2022-07-29T01:36:14;12.50;99.90
3275;DHT22;1649;53.672;10.064;2022-07-29T01:38:44;12.40;99.90
3275;DHT22;1649;53.672;10.064;2022-07-29T01:41:17;12.40;99.90
3275;DHT22;1649;53.672;10.064;2022-07-29T01:46:15;12.50;99.90
3275;DHT22;1649;53.672;10.064;2022-07-29T01:48:48;12.50;99.90
3275;DHT22;1649;53.672;10.064;2022-07-29T01:54:21;12.40;99.90
3275;DHT22;1649;53.672;10.064;2022-07-29T01:56:51;12.50;99.90
3275;DHT22;1649;53.672;10.064;2022-07-29T01:59:20;12.50;99.90
3275;DHT22;1649;53.672;10.064;2022-07-29T02:01:47;12.40;99.90
3275;DHT22;1649;53.672;10.064;2022-07-29T02:04:14;12.40;99.90
3275;DHT22;1649;53.672;10.064;2022-07-29T02:06:42;12.40;99.90
3275;DHT22;1649;53.672;10.064;2022-07-29T02:09:10;12.40;99.90
3275;DHT22;1649;53.672;10.064;2022-07-29T02:11:38;12.40;99.90
3275;DHT22;1649;53.672;10.064;2022-07-29T02:14:05;12.40;99.90
3275;DHT22;1649;53.672;10.064;2022-07-29T02:16:32;12.40;99.90
3275;DHT22;1649;53.672;10.064;2022-07-29T02:19:01;12.40;99.90
3275;DHT22;1649;53.672;10.064;2022-07-29T02:21:27;12.40;99.90
3275;DHT22;1649;53.672;10.064;2022-07-29T02:23:56;12.40;99.90
3275;DHT22;1649;53.672;10.064;2022-07-29T02:26:26;12.40;99.90
3275;DHT22;1649;53.672;10.064;2022-07-29T02:28:54;12.30;99.90
3275;DHT22;1649;53.672;10.064;2022-07-29T02:31:25;12.30;99.90
3275;DHT22;1649;53.672;10.064;2022-07-29T02:33:53;12.40;99.90
3275;DHT22;1649;53.672;10.064;2022-07-29T02:36:21;12.40;99.90
3275;DHT22;1649;53.672;10.064;2022-07-29T02:38:48;12.30;99.90
3275;DHT22;1649;53.672;10.064;2022-07-29T02:41:30;12.40;99.90
3275;DHT22;1649;53.672;10.064;2022-07-29T02:44:13;12.30;99.90
3275;DHT22;1649;53.672;10.064;2022-07-29T02:47:07;12.20;99.90
3275;DHT22;1649;53.672;10.064;2022-07-29T02:49:54;12.30;99.90
3275;DHT22;1649;53.672;10.064;2022-07-29T02:54:58;12.30;99.90
3275;DHT22;1649;53.672;10.064;2022-07-29T02:57:39;12.30;99.90
3275;DHT22;1649;53.672;10.064;2022-07-29T03:00:08;12.40;99.90
3275;DHT22;1649;53.672;10.064;2022-07-29T03:02:41;12.30;99.90
3275;DHT22;1649;53.672;10.064;2022-07-29T03:05:10;12.30;99.90
3275;DHT22;1649;53.672;10.064;2022-07-29T03:07:38;12.40;99.90
3275;DHT22;1649;53.672;10.064;2022-07-29T03:10:06;12.40;99.90
3275;DHT22;1649;53.672;10.064;2022-07-29T03:12:33;12.40;99.90
3275;DHT22;1649;53.672;10.064;2022-07-29T03:15:00;12.50;99.90
3275;DHT22;1649;53.672;10.064;2022-07-29T03:17:26;12.40;99.90
3275;DHT22;1649;53.672;10.064;2022-07-29T03:19:52;12.40;99.90
3275;DHT22;1649;53.672;10.064;2022-07-29T03:22:18;12.50;99.90
3275;DHT22;1649;53.672;10.064;2022-07-29T03:24:44;12.50;99.90
3275;DHT22;1649;53.672;10.064;2022-07-29T03:27:09;12.50;99.90
3275;DHT22;1649;53.672;10.064;2022-07-29T03:29:35;12.60;99.90
3275;DHT22;1649;53.672;10.064;2022-07-29T03:32:03;12.60;99.90
3275;DHT22;1649;53.672;10.064;2022-07-29T03:34:29;12.60;99.90
3275;DHT22;1649;53.672;10.064;2022-07-29T03:36:54;12.70;99.90
3275;DHT22;1649;53.672;10.064;2022-07-29T03:39:22;12.60;99.90
3275;DHT22;1649;53.672;10.064;2022-07-29T03:41:52;12.60;99.90
3275;DHT22;1649;53.672;10.064;2022-07-29T03:44:20;12.60;99.90
3275;DHT22;1649;53.672;10.064;2022-07-29T03:46:48;12.60;99.90
3275;DHT22;1649;53.672;10.064;2022-07-29T03:49:16;12.60;99.90
3275;DHT22;1649;53.672;10.064;2022-07-29T03:51:43;12.70;99.90
3275;DHT22;1649;53.672;10.064;2022-07-29T03:54:09;12.70;99.90
3275;DHT22;1649;53.672;10.064;2022-07-29T03:56:38;12.70;99.90
3275;DHT22;1649;53.672;10.064;2022-07-29T03:59:04;12.60;99.90
3275;DHT22;1649;53.672;10.064;2022-07-29T04:01:32;12.70;99.90
3275;DHT22;1649;53.672;10.064;2022-07-29T04:04:00;12.70;99.90
3275;DHT22;1649;53.672;10.064;2022-07-29T04:06:26;12.70;99.90
3275;DHT22;1649;53.672;10.064;2022-07-29T04:08:51;12.60;99.90
3275;DHT22;1649;53.672;10.064;2022-07-29T04:11:17;12.70;99.90
3275;DHT22;1649;53.672;10.064;2022-07-29T04:13:43;12.80;99.90
3275;DHT22;1649;53.672;10.064;2022-07-29T04:16:08;12.80;99.90
3275;DHT22;1649;53.672;10.064;2022-07-29T04:18:34;12.80;99.90
3275;DHT22;1649;53.672;10.064;2022-07-29T04:20:59;12.80;99.90
3275;DHT22;1649;53.672;10.064;2022-07-29T04:23:29;12.90;99.90
3275;DHT22;1649;53.672;10.064;2022-07-29T04:25:57;12.90;99.90
3275;DHT22;1649;53.672;10.064;2022-07-29T04:28:23;13.00;99.90
3275;DHT22;1649;53.672;10.064;2022-07-29T04:30:48;13.00;99.90
3275;DHT22;1649;53.672;10.064;2022-07-29T04:33:14;13.00;99.90
3275;DHT22;1649;53.672;10.064;2022-07-29T04:35:40;13.10;99.90
3275;DHT22;1649;53.672;10.064;2022-07-29T04:38:05;13.10;99.90
3275;DHT22;1649;53.672;10.064;2022-07-29T04:40:31;13.10;99.90
3275;DHT22;1649;53.672;10.064;2022-07-29T04:42:59;13.20;99.90
3275;DHT22;1649;53.672;10.064;2022-07-29T04:45:24;13.20;99.90
3275;DHT22;1649;53.672;10.064;2022-07-29T04:47:50;13.30;99.90
3275;DHT22;1649;53.672;10.064;2022-07-29T04:50:15;13.30;99.90
3275;DHT22;1649;53.672;10.064;2022-07-29T04:52:41;13.30;99.90
3275;DHT22;1649;53.672;10.064;2022-07-29T04:55:07;13.30;99.90
3275;DHT22;1649;53.672;10.064;2022-07-29T04:57:33;13.30;99.90
3275;DHT22;1649;53.672;10.064;2022-07-29T04:59:58;13.30;99.90
3275;DHT22;1649;53.672;10.064;2022-07-29T05:02:24;13.30;99.90
3275;DHT22;1649;53.672;10.064;2022-07-29T05:04:49;13.40;99.90
3275;DHT22;1649;53.672;10.064;2022-07-29T05:07:15;13.30;99.90
3275;DHT22;1649;53.672;10.064;2022-07-29T05:09:40;13.40;99.90
3275;DHT22;1649;53.672;10.064;2022-07-29T05:12:07;13.40;99.90
3275;DHT22;1649;53.672;10.064;2022-07-29T05:14:32;13.50;99.90
3275;DHT22;1649;53.672;10.064;2022-07-29T05:16:58;13.50;99.90
3275;DHT22;1649;53.672;10.064;2022-07-29T05:19:24;13.60;99.90
3275;DHT22;1649;53.672;10.064;2022-07-29T05:21:49;13.60;99.90
3275;DHT22;1649;53.672;10.064;2022-07-29T05:24:15;13.70;99.90
3275;DHT22;1649;53.672;10.064;2022-07-29T05:26:41;13.70;99.90
3275;DHT22;1649;53.672;10.064;2022-07-29T05:29:07;13.80;99.90
3275;DHT22;1649;53.672;10.064;2022-07-29T05:31:32;13.80;99.90
3275;DHT22;1649;53.672;10.064;2022-07-29T05:33:58;13.90;99.90
3275;DHT22;1649;53.672;10.064;2022-07-29T05:36:24;13.90;99.90
3275;DHT22;1649;53.672;10.064;2022-07-29T05:38:50;13.80;99.90
3275;DHT22;1649;53.672;10.064;2022-07-29T05:41:17;14.00;99.90
3275;DHT22;1649;53.672;10.064;2022-07-29T05:43:43;14.10;99.90
3275;DHT22;1649;53.672;10.064;2022-07-29T05:46:08;14.20;99.90
3275;DHT22;1649;53.672;10.064;2022-07-29T05:48:34;14.30;99.90
3275;DHT22;1649;53.672;10.064;2022-07-29T05:50:59;14.40;99.90
3275;DHT22;1649;53.672;10.064;2022-07-29T05:53:25;14.60;99.90
3275;DHT22;1649;53.672;10.064;2022-07-29T05:55:51;14.60;99.90
3275;DHT22;1649;53.672;10.064;2022-07-29T05:58:17;14.60;99.90
3275;DHT22;1649;53.672;10.064;2022-07-29T06:00:43;14.70;99.90
3275;DHT22;1649;53.672;10.064;2022-07-29T06:03:08;14.60;99.90
3275;DHT22;1649;53.672;10.064;2022-07-29T06:05:34;14.70;99.90
3275;DHT22;1649;53.672;10.064;2022-07-29T06:07:59;14.80;99.90
3275;DHT22;1649;53.672;10.064;2022-07-29T06:10:25;14.90;99.90
3275;DHT22;1649;53.672;10.064;2022-07-29T06:12:52;15.10;99.90
3275;DHT22;1649;53.672;10.064;2022-07-29T06:15:17;15.20;99.90
3275;DHT22;1649;53.672;10.064;2022-07-29T06:17:43;15.30;99.90
3275;DHT22;1649;53.672;10.064;2022-07-29T06:20:09;15.60;99.90
3275;DHT22;1649;53.672;10.064;2022-07-29T06:22:35;15.80;99.90
3275;DHT22;1649;53.672;10.064;2022-07-29T06:25:01;15.90;99.90
3275;DHT22;1649;53.672;10.064;2022-07-29T06:27:27;15.90;99.90
3275;DHT22;1649;53.672;10.064;2022-07-29T06:29:52;16.00;99.90
3275;DHT22;1649;53.672;10.064;2022-07-29T06:32:18;16.10;99.90
3275;DHT22;1649;53.672;10.064;2022-07-29T06:34:44;16.20;99.90
3275;DHT22;1649;53.672;10.064;2022-07-29T06:37:09;16.20;99.90
3275;DHT22;1649;53.672;10.064;2022-07-29T06:39:35;16.30;99.90
3275;DHT22;1649;53.672;10.064;2022-07-29T06:42:03;16.40;99.90
3275;DHT22;1649;53.672;10.064;2022-07-29T06:44:29;16.50;99.90
3275;DHT22;1649;53.672;10.064;2022-07-29T06:46:55;16.60;99.90
3275;DHT22;1649;53.672;10.064;2022-07-29T06:49:21;16.80;99.90
3275;DHT22;1649;53.672;10.064;2022-07-29T06:51:46;17.00;99.90
3275;DHT22;1649;53.672;10.064;2022-07-29T06:54:12;17.20;99.90
3275;DHT22;1649;53.672;10.064;2022-07-29T06:56:37;17.50;99.90
3275;DHT22;1649;53.672;10.064;2022-07-29T06:59:04;17.70;99.90
3275;DHT22;1649;53.672;10.064;2022-07-29T07:01:29;17.80;99.90
3275;DHT22;1649;53.672;10.064;2022-07-29T07:03:55;17.90;99.90
3275;DHT22;1649;53.672;10.064;2022-07-29T07:06:21;17.90;99.90
3275;DHT22;1649;53.672;10.064;2022-07-29T07:08:46;18.10;99.90
3275;DHT22;1649;53.672;10.064;2022-07-29T07:11:12;18.40;99.90
3275;DHT22;1649;53.672;10.064;2022-07-29T07:13:37;18.80;99.90
3275;DHT22;1649;53.672;10.064;2022-07-29T07:16:03;19.30;99.90
3275;DHT22;1649;53.672;10.064;2022-07-29T07:18:29;19.90;99.90
3275;DHT22;1649;53.672;10.064;2022-07-29T07:20:56;20.50;99.90
3275;DHT22;1649;53.672;10.064;2022-07-29T07:23:22;20.60;99.90
3275;DHT22;1649;53.672;10.064;2022-07-29T07:25:48;20.70;99.90
3275;DHT22;1649;53.672;10.064;2022-07-29T07:28:14;20.60;99.90
3275;DHT22;1649;53.672;10.064;2022-07-29T07:30:39;20.60;99.90
3275;DHT22;1649;53.672;10.064;2022-07-29T07:33:05;20.40;99.90
3275;DHT22;1649;53.672;10.064;2022-07-29T07:35:30;20.60;99.90
3275;DHT22;1649;53.672;10.064;2022-07-29T07:37:56;21.10;99.90
3275;DHT22;1649;53.672;10.064;2022-07-29T07:40:22;21.60;99.90
3275;DHT22;1649;53.672;10.064;2022-07-29T07:42:47;22.00;99.90
3275;DHT22;1649;53.672;10.064;2022-07-29T07:45:13;22.20;99.90
3275;DHT22;1649;53.672;10.064;2022-07-29T07:47:39;22.20;99.90
3275;DHT22;1649;53.672;10.064;2022-07-29T07:50:09;22.40;99.90
3275;DHT22;1649;53.672;10.064;2022-07-29T07:52:46;22.30;99.90
3275;DHT22;1649;53.672;10.064;2022-07-29T07:55:11;22.10;99.90
3275;DHT22;1649;53.672;10.064;2022-07-29T07:57:37;22.00;99.90
3275;DHT22;1649;53.672;10.064;2022-07-29T08:00:03;21.70;99.90
3275;DHT22;1649;53.672;10.064;2022-07-29T08:02:29;21.50;99.90
3275;DHT22;1649;53.672;10.064;2022-07-29T08:04:55;21.20;99.90
3275;DHT22;1649;53.672;10.064;2022-07-29T08:07:20;21.10;99.90
3275;DHT22;1649;53.672;10.064;2022-07-29T08:09:46;21.20;99.90
3275;DHT22;1649;53.672;10.064;2022-07-29T08:12:11;21.20;99.90
3275;DHT22;1649;53.672;10.064;2022-07-29T08:14:37;21.30;99.90
3275;DHT22;1649;53.672;10.064;2022-07-29T08:17:02;21.30;99.90
3275;DHT22;1649;53.672;10.064;2022-07-29T08:19:28;21.30;99.90
3275;DHT22;1649;53.672;10.064;2022-07-29T08:21:53;21.60;99.90
3275;DHT22;1649;53.672;10.064;2022-07-29T08:24:20;21.60;99.90
3275;DHT22;1649;53.672;10.064;2022-07-29T08:27:04;21.50;99.90
3275;DHT22;1649;53.672;10.064;2022-07-29T08:29:29;21.40;99.90
3275;DHT22;1649;53.672;10.064;2022-07-29T08:31:55;21.60;99.90
3275;DHT22;1649;53.672;10.064;2022-07-29T08:34:21;21.80;99.90
3275;DHT22;1649;53.672;10.064;2022-07-29T08:36:46;22.50;99.90
3275;DHT22;1649;53.672;10.064;2022-07-29T08:39:12;23.10;99.90
3275;DHT22;1649;53.672;10.064;2022-07-29T08:41:37;23.80;99.90
3275;DHT22;1649;53.672;10.064;2022-07-29T08:44:03;24.30;97.40
3275;DHT22;1649;53.672;10.064;2022-07-29T08:46:29;25.10;97.80
3275;DHT22;1649;53.672;10.064;2022-07-29T08:48:55;25.30;95.20
3275;DHT22;1649;53.672;10.064;2022-07-29T08:51:21;25.90;94.40
3275;DHT22;1649;53.672;10.064;2022-07-29T08:53:48;25.80;94.20
3275;DHT22;1649;53.672;10.064;2022-07-29T08:56:15;25.60;94.40
3275;DHT22;1649;53.672;10.064;2022-07-29T08:58:48;25.90;95.40
3275;DHT22;1649;53.672;10.064;2022-07-29T09:01:16;26.20;94.00
3275;DHT22;1649;53.672;10.064;2022-07-29T09:03:44;27.10;93.00
3275;DHT22;1649;53.672;10.064;2022-07-29T09:06:13;27.60;93.10
3275;DHT22;1649;53.672;10.064;2022-07-29T09:08:40;28.30;91.30
3275;DHT22;1649;53.672;10.064;2022-07-29T09:11:06;28.60;91.10
3275;DHT22;1649;53.672;10.064;2022-07-29T09:13:33;29.10;89.10
3275;DHT22;1649;53.672;10.064;2022-07-29T09:15:58;28.40;88.50
3275;DHT22;1649;53.672;10.064;2022-07-29T09:18:44;28.30;89.40
3275;DHT22;1649;53.672;10.064;2022-07-29T09:21:12;28.20;86.30
3275;DHT22;1649;53.672;10.064;2022-07-29T09:24:08;28.70;90.50
3275;DHT22;1649;53.672;10.064;2022-07-29T09:26:36;29.10;87.30
3275;DHT22;1649;53.672;10.064;2022-07-29T09:29:12;29.20;87.60
3275;DHT22;1649;53.672;10.064;2022-07-29T09:31:39;29.40;84.80
3275;DHT22;1649;53.672;10.064;2022-07-29T09:34:06;29.70;86.20
3275;DHT22;1649;53.672;10.064;2022-07-29T09:36:40;29.20;80.60
3275;DHT22;1649;53.672;10.064;2022-07-29T09:39:05;29.50;86.60
3275;DHT22;1649;53.672;10.064;2022-07-29T09:41:49;30.10;84.70
3275;DHT22;1649;53.672;10.064;2022-07-29T09:44:16;29.90;82.00
3275;DHT22;1649;53.672;10.064;2022-07-29T09:46:54;29.90;82.40
3275;DHT22;1649;53.672;10.064;2022-07-29T09:49:19;30.00;82.40
3275;DHT22;1649;53.672;10.064;2022-07-29T09:51:45;29.60;79.40
3275;DHT22;1649;53.672;10.064;2022-07-29T09:54:23;29.10;81.60
3275;DHT22;1649;53.672;10.064;2022-07-29T09:56:49;28.90;81.00
3275;DHT22;1649;53.672;10.064;2022-07-29T09:59:15;28.50;82.20
3275;DHT22;1649;53.672;10.064;2022-07-29T10:01:40;28.10;82.70
3275;DHT22;1649;53.672;10.064;2022-07-29T10:04:06;27.80;84.80
3275;DHT22;1649;53.672;10.064;2022-07-29T10:06:31;27.50;84.10
3275;DHT22;1649;53.672;10.064;2022-07-29T10:09:10;27.40;84.50
3275;DHT22;1649;53.672;10.064;2022-07-29T10:11:36;27.20;83.40
3275;DHT22;1649;53.672;10.064;2022-07-29T10:14:03;27.10;81.90
3275;DHT22;1649;53.672;10.064;2022-07-29T10:16:29;27.20;85.90
3275;DHT22;1649;53.672;10.064;2022-07-29T10:18:58;27.60;86.20
3275;DHT22;1649;53.672;10.064;2022-07-29T10:21:25;27.60;82.00
3275;DHT22;1649;53.672;10.064;2022-07-29T10:23:52;27.20;80.70
3275;DHT22;1649;53.672;10.064;2022-07-29T10:26:18;27.20;81.00
3275;DHT22;1649;53.672;10.064;2022-07-29T10:28:44;26.70;77.50
3275;DHT22;1649;53.672;10.064;2022-07-29T10:31:15;26.40;81.30
3275;DHT22;1649;53.672;10.064;2022-07-29T10:34:04;26.20;81.60
3275;DHT22;1649;53.672;10.064;2022-07-29T10:42:25;26.20;85.00
3275;DHT22;1649;53.672;10.064;2022-07-29T10:44:53;26.50;82.70
3275;DHT22;1649;53.672;10.064;2022-07-29T10:47:23;26.30;82.40
3275;DHT22;1649;53.672;10.064;2022-07-29T10:49:59;26.20;82.50
3275;DHT22;1649;53.672;10.064;2022-07-29T10:55:37;26.00;82.50
3275;DHT22;1649;53.672;10.064;2022-07-29T11:00:39;26.00;81.90
3275;DHT22;1649;53.672;10.064;2022-07-29T11:03:04;25.90;82.60
3275;DHT22;1649;53.672;10.064;2022-07-29T11:05:30;25.80;84.40
3275;DHT22;1649;53.672;10.064;2022-07-29T11:10:45;25.90;82.30
3275;DHT22;1649;53.672;10.064;2022-07-29T11:13:11;25.70;84.80
3275;DHT22;1649;53.672;10.064;2022-07-29T11:15:56;25.70;84.30
3275;DHT22;1649;53.672;10.064;2022-07-29T11:18:23;25.70;85.10
3275;DHT22;1649;53.672;10.064;2022-07-29T11:20:49;25.60;83.10
3275;DHT22;1649;53.672;10.064;2022-07-29T11:23:33;25.60;86.90
3275;DHT22;1649;53.672;10.064;2022-07-29T11:26:13;25.50;86.70
3275;DHT22;1649;53.672;10.064;2022-07-29T11:28:57;25.50;86.90
3275;DHT22;1649;53.672;10.064;2022-07-29T11:31:45;25.50;86.30
3275;DHT22;1649;53.672;10.064;2022-07-29T11:39:38;25.70;86.00
3275;DHT22;1649;53.672;10.064;2022-07-29T11:50:15;26.30;87.50
3275;DHT22;1649;53.672;10.064;2022-07-29T11:52:46;27.10;79.50
3275;DHT22;1649;53.672;10.064;2022-07-29T11:55:17;27.60;78.80
3275;DHT22;1649;53.672;10.064;2022-07-29T11:57:48;27.70;75.80
3275;DHT22;1649;53.672;10.064;2022-07-29T12:02:50;28.10;75.20
3275;DHT22;1649;53.672;10.064;2022-07-29T12:05:16;28.00;75.90
3275;DHT22;1649;53.672;10.064;2022-07-29T12:07:42;28.10;76.10
3275;DHT22;1649;53.672;10.064;2022-07-29T12:10:08;28.00;71.90
3275;DHT22;1649;53.672;10.064;2022-07-29T12:12:34;27.90;72.80
3275;DHT22;1649;53.672;10.064;2022-07-29T12:15:13;27.70;75.70
3275;DHT22;1649;53.672;10.064;2022-07-29T12:17:39;27.60;75.20
3275;DHT22;1649;53.672;10.064;2022-07-29T12:20:05;27.50;76.50
3275;DHT22;1649;53.672;10.064;2022-07-29T12:22:36;27.50;74.20
3275;DHT22;1649;53.672;10.064;2022-07-29T12:25:10;27.20;76.00
3275;DHT22;1649;53.672;10.064;2022-07-29T12:27:37;27.10;74.60
3275;DHT22;1649;53.672;10.064;2022-07-29T12:30:14;27.30;77.10
3275;DHT22;1649;53.672;10.064;2022-07-29T12:32:47;27.20;75.90
3275;DHT22;1649;53.672;10.064;2022-07-29T12:35:18;27.10;77.00
3275;DHT22;1649;53.672;10.064;2022-07-29T12:37:45;27.00;75.20
3275;DHT22;1649;53.672;10.064;2022-07-29T12:40:15;27.20;77.50
3275;DHT22;1649;53.672;10.064;2022-07-29T12:45:29;27.60;79.50
3275;DHT22;1649;53.672;10.064;2022-07-29T12:47:56;27.70;80.50
3275;DHT22;1649;53.672;10.064;2022-07-29T12:50:21;27.70;79.80
3275;DHT22;1649;53.672;10.064;2022-07-29T12:52:47;27.60;83.40
3275;DHT22;1649;53.672;10.064;2022-07-29T12:55:12;28.00;82.00
3275;DHT22;1649;53.672;10.064;2022-07-29T12:57:45;28.10;80.60
3275;DHT22;1649;53.672;10.064;2022-07-29T13:00:12;27.90;80.90
3275;DHT22;1649;53.672;10.064;2022-07-29T13:02:40;28.10;80.90
3275;DHT22;1649;53.672;10.064;2022-07-29T13:05:07;27.90;80.10
3275;DHT22;1649;53.672;10.064;2022-07-29T13:07:34;27.60;82.60
3275;DHT22;1649;53.672;10.064;2022-07-29T13:10:14;27.60;81.80
3275;DHT22;1649;53.672;10.064;2022-07-29T13:13:06;27.40;81.50
3275;DHT22;1649;53.672;10.064;2022-07-29T13:15:33;26.80;82.90
3275;DHT22;1649;53.672;10.064;2022-07-29T13:17:59;26.90;86.20
3275;DHT22;1649;53.672;10.064;2022-07-29T13:20:27;27.00;85.60
3275;DHT22;1649;53.672;10.064;2022-07-29T13:22:58;27.40;86.50
3275;DHT22;1649;53.672;10.064;2022-07-29T13:25:33;27.50;85.10
3275;DHT22;1649;53.672;10.064;2022-07-29T13:27:59;27.50;84.40
3275;DHT22;1649;53.672;10.064;2022-07-29T13:30:25;27.40;84.20
3275;DHT22;1649;53.672;10.064;2022-07-29T13:32:52;27.10;84.70
3275;DHT22;1649;53.672;10.064;2022-07-29T13:35:19;26.80;85.20
3275;DHT22;1649;53.672;10.064;2022-07-29T13:37:45;26.70;86.50
3275;DHT22;1649;53.672;10.064;2022-07-29T13:40:11;26.60;88.00
3275;DHT22;1649;53.672;10.064;2022-07-29T13:42:38;26.70;86.60
3275;DHT22;1649;53.672;10.064;2022-07-29T13:45:04;26.80;85.00
3275;DHT22;1649;53.672;10.064;2022-07-29T13:47:31;26.90;87.70
3275;DHT22;1649;53.672;10.064;2022-07-29T13:49:57;26.80;84.80
3275;DHT22;1649;53.672;10.064;2022-07-29T13:52:22;26.50;85.00
3275;DHT22;1649;53.672;10.064;2022-07-29T13:54:48;26.60;84.60
3275;DHT22;1649;53.672;10.064;2022-07-29T13:57:14;26.40;86.50
3275;DHT22;1649;53.672;10.064;2022-07-29T13:59:41;26.60;84.90
3275;DHT22;1649;53.672;10.064;2022-07-29T14:02:07;26.70;84.30
3275;DHT22;1649;53.672;10.064;2022-07-29T14:04:33;26.80;82.70
3275;DHT22;1649;53.672;10.064;2022-07-29T14:06:58;26.70;84.50
3275;DHT22;1649;53.672;10.064;2022-07-29T14:09:24;26.60;85.50
3275;DHT22;1649;53.672;10.064;2022-07-29T14:11:49;26.40;84.90
3275;DHT22;1649;53.672;10.064;2022-07-29T14:14:16;26.30;86.30
3275;DHT22;1649;53.672;10.064;2022-07-29T14:16:42;26.20;87.00
3275;DHT22;1649;53.672;10.064;2022-07-29T14:19:08;26.20;87.30
3275;DHT22;1649;53.672;10.064;2022-07-29T14:21:33;26.40;88.70
3275;DHT22;1649;53.672;10.064;2022-07-29T14:24:00;26.30;87.10
3275;DHT22;1649;53.672;10.064;2022-07-29T14:26:25;26.30;87.50
3275;DHT22;1649;53.672;10.064;2022-07-29T14:28:51;26.10;87.00
3275;DHT22;1649;53.672;10.064;2022-07-29T14:31:16;26.00;87.20
3275;DHT22;1649;53.672;10.064;2022-07-29T14:33:42;25.90;87.10
3275;DHT22;1649;53.672;10.064;2022-07-29T14:36:08;25.80;87.40
3275;DHT22;1649;53.672;10.064;2022-07-29T14:38:34;25.80;87.40
3275;DHT22;1649;53.672;10.064;2022-07-29T14:41:00;25.80;87.50
3275;DHT22;1649;53.672;10.064;2022-07-29T14:43:26;25.60;88.50
3275;DHT22;1649;53.672;10.064;2022-07-29T14:45:51;25.50;89.30
3275;DHT22;1649;53.672;10.064;2022-07-29T14:48:17;25.50;89.20
3275;DHT22;1649;53.672;10.064;2022-07-29T14:50:42;25.40;89.70
3275;DHT22;1649;53.672;10.064;2022-07-29T14:53:08;25.30;89.80
3275;DHT22;1649;53.672;10.064;2022-07-29T14:55:33;25.20;88.70
3275;DHT22;1649;53.672;10.064;2022-07-29T14:57:59;24.90;90.00
3275;DHT22;1649;53.672;10.064;2022-07-29T15:00:25;24.60;90.30
3275;DHT22;1649;53.672;10.064;2022-07-29T15:02:51;24.60;90.60
3275;DHT22;1649;53.672;10.064;2022-07-29T15:05:16;24.60;90.60
3275;DHT22;1649;53.672;10.064;2022-07-29T15:07:42;24.70;90.80
3275;DHT22;1649;53.672;10.064;2022-07-29T15:10:08;24.70;90.70
3275;DHT22;1649;53.672;10.064;2022-07-29T15:12:34;24.80;90.80
3275;DHT22;1649;53.672;10.064;2022-07-29T15:14:59;24.70;90.30
3275;DHT22;1649;53.672;10.064;2022-07-29T15:17:25;24.80;90.60
3275;DHT22;1649;53.672;10.064;2022-07-29T15:19:50;24.90;90.90
3275;DHT22;1649;53.672;10.064;2022-07-29T15:22:16;25.00;91.00
3275;DHT22;1649;53.672;10.064;2022-07-29T15:24:41;25.20;90.70
3275;DHT22;1649;53.672;10.064;2022-07-29T15:27:07;25.40;90.50
3275;DHT22;1649;53.672;10.064;2022-07-29T15:29:42;25.60;90.40
3275;DHT22;1649;53.672;10.064;2022-07-29T15:32:08;25.60;90.10
3275;DHT22;1649;53.672;10.064;2022-07-29T15:34:34;25.50;90.10
3275;DHT22;1649;53.672;10.064;2022-07-29T15:36:59;25.30;90.80
3275;DHT22;1649;53.672;10.064;2022-07-29T15:39:25;25.30;90.80
3275;DHT22;1649;53.672;10.064;2022-07-29T15:41:51;25.10;90.70
3275;DHT22;1649;53.672;10.064;2022-07-29T15:44:17;25.20;91.00
3275;DHT22;1649;53.672;10.064;2022-07-29T15:46:43;25.10;90.70
3275;DHT22;1649;53.672;10.064;2022-07-29T15:49:28;25.00;90.90
3275;DHT22;1649;53.672;10.064;2022-07-29T15:52:05;24.90;91.10
3275;DHT22;1649;53.672;10.064;2022-07-29T15:54:36;24.90;91.20
3275;DHT22;1649;53.672;10.064;2022-07-29T15:57:02;24.90;90.60
3275;DHT22;1649;53.672;10.064;2022-07-29T15:59:28;25.00;90.70
3275;DHT22;1649;53.672;10.064;2022-07-29T16:01:54;24.90;90.90
3275;DHT22;1649;53.672;10.064;2022-07-29T16:04:20;24.70;91.10
3275;DHT22;1649;53.672;10.064;2022-07-29T16:06:46;24.60;91.40
3275;DHT22;1649;53.672;10.064;2022-07-29T16:09:12;24.80;91.70
3275;DHT22;1649;53.672;10.064;2022-07-29T16:11:38;24.80;91.60
3275;DHT22;1649;53.672;10.064;2022-07-29T16:14:04;24.50;91.00
3275;DHT22;1649;53.672;10.064;2022-07-29T16:16:29;24.40;91.50
3275;DHT22;1649;53.672;10.064;2022-07-29T16:18:55;24.30;91.30
3275;DHT22;1649;53.672;10.064;2022-07-29T16:21:21;24.20;91.80
3275;DHT22;1649;53.672;10.064;2022-07-29T16:23:50;24.10;91.80
3275;DHT22;1649;53.672;10.064;2022-07-29T16:26:16;24.10;92.30
3275;DHT22;1649;53.672;10.064;2022-07-29T16:28:41;23.90;92.50
3275;DHT22;1649;53.672;10.064;2022-07-29T16:31:07;23.80;92.70
3275;DHT22;1649;53.672;10.064;2022-07-29T16:33:33;23.80;92.90
3275;DHT22;1649;53.672;10.064;2022-07-29T16:35:59;23.80;93.30